Latest Weather Observations for Moss Vale

IDN60801

Issued at 12:32 pm EDT Saturday 25 March 2017 (issued every 30 minutes, with the page automatically refreshed every 10 minutes)

About weather observations | Map of weather stations | Latest weather observations for NSW | Other Formats
Station Details ID: 068239 Name: MOSS VALE AWS Lat: -34.53 Lon: 150.42 Height: 678.4 m
Data from the previous 72 hours. | See also: Recent months at Moss Vale
Date/Time
EDT
Temp
°C
App
Temp
°C
Dew
Point
°C
Rel
Hum
%
Delta-T
°C
Wind Press
QNH
hPa
Press
MSL
hPa
Rain since
9am
mm
Dir  Spd
km/h
Gust
km/h
Spd
kts
Gust
kts
25/12:30pm 19.3 17.8 15.2 77 2.5 N 17 24 9 13 - - 0.0
25/12:00pm 17.8 15.2 13.3 75 2.6 N 19 22 10 12 - - 0.0
25/11:30am 16.9 14.1 13.2 79 2.1 N 20 28 11 15 - - 0.0
25/11:00am 16.5 13.5 12.5 77 2.3 N 20 28 11 15 - - 0.0
25/10:30am 16.2 12.0 12.4 78 2.2 N 26 35 14 19 - - 0.0
25/10:00am 16.5 13.6 12.8 79 2.1 N 20 30 11 16 - - 0.0
25/09:30am 15.7 12.8 12.3 80 1.9 N 19 26 10 14 - - 0.0
25/09:00am 16.0 13.9 13.7 86 1.3 NNE 17 20 9 11 - - 0.2
25/08:30am 15.3 13.8 14.2 93 0.6 N 15 24 8 13 - - 0.2
25/08:00am 13.9 12.1 13.4 97 0.3 NNE 15 20 8 11 - - 0.2
25/07:30am 13.7 12.0 13.7 100 0.0 NNE 15 20 8 11 - - 0.2
25/07:00am 13.5 11.4 13.5 100 0.0 NNE 17 20 9 11 - - 0.2
25/06:30am 13.8 11.7 13.6 99 0.1 NNE 17 20 9 11 - - 0.2
25/06:00am 14.0 12.4 14.0 100 0.0 NNE 15 19 8 10 - - 0.2
25/05:30am 14.1 12.9 13.9 99 0.1 NNE 13 19 7 10 - - 0.2
25/05:00am 14.1 13.2 13.8 98 0.2 NNE 11 13 6 7 - - 0.2
25/04:30am 14.1 12.8 13.8 98 0.2 NNE 13 15 7 8 - - 0.2
25/04:00am 14.0 13.1 13.8 99 0.1 NNE 11 15 6 8 - - 0.2
25/03:30am 14.1 12.8 13.8 98 0.2 NNE 13 15 7 8 - - 0.2
25/03:00am 14.1 12.8 13.6 97 0.3 NE 13 19 7 10 - - 0.2
25/02:30am 14.2 12.5 13.7 97 0.3 NE 15 20 8 11 - - 0.2
25/02:00am 14.1 12.2 14.1 100 0.0 NE 17 20 9 11 - - 0.2
25/01:43am 14.1 12.9 14.1 100 0.0 NE 13 20 7 11 - - 0.2
25/01:30am 14.1 12.9 14.1 100 0.0 NE 13 19 7 10 - - 0.2
25/01:16am 14.1 14.1 14.1 100 0.0 NNE 7 11 4 6 - - 0.2
25/01:00am 14.0 12.4 14.0 100 0.0 NNE 15 20 8 11 - - 0.2
25/12:30am 14.1 13.3 13.9 99 0.1 ENE 11 15 6 8 - - 0.2
25/12:13am 14.2 13.4 13.9 98 0.2 NE 11 13 6 7 - - 0.2
25/12:00am 14.2 12.6 14.0 99 0.1 NE 15 20 8 11 - - 0.2
 
Date/Time
EDT
Temp
°C
App
Temp
°C
Dew
Point
°C
Rel
Hum
%
Delta-T
°C
Wind Press
QNH
hPa
Press
MSL
hPa
Rain since
9am
mm
Dir  Spd
km/h
Gust
km/h
Spd
kts
Gust
kts
24/11:44pm 14.2 13.5 14.2 100 0.0 NE 11 15 6 8 - - 0.2
24/11:30pm 14.2 13.0 14.0 99 0.1 ENE 13 20 7 11 - - 0.2
24/11:05pm 14.3 13.1 14.1 99 0.1 ENE 13 24 7 13 - - 0.2
24/11:00pm 14.3 13.2 14.3 100 0.0 ENE 13 19 7 10 - - 0.2
24/10:30pm 14.4 13.3 14.4 100 0.0 E 13 20 7 11 - - 0.2
24/10:00pm 14.4 13.7 14.2 99 0.1 E 11 15 6 8 - - 0.2
24/09:30pm 14.4 12.6 14.4 100 0.0 E 17 20 9 11 - - 0.2
24/09:00pm 14.5 13.8 14.3 99 0.1 E 11 17 6 9 - - 0.2
24/08:30pm 14.5 13.5 14.5 100 0.0 E 13 19 7 10 - - 0.2
24/08:00pm 14.3 13.2 14.3 100 0.0 ENE 13 19 7 10 - - 0.2
24/07:58pm 14.3 13.2 14.3 100 0.0 E 13 19 7 10 - - 0.2
24/07:55pm 14.3 13.2 14.3 100 0.0 E 13 19 7 10 - - 0.2
24/07:30pm 14.5 12.7 14.5 100 0.0 E 17 20 9 11 - - 0.2
24/07:00pm 15.1 13.8 14.9 99 0.1 E 15 20 8 11 - - 0.2
24/06:30pm 15.4 14.1 14.9 97 0.3 ENE 15 20 8 11 - - 0.2
24/06:11pm 15.3 14.9 15.3 100 0.0 ESE 11 15 6 8 - - 0.2
24/06:06pm 15.4 15.1 15.4 100 0.0 ESE 11 13 6 7 - - 0.2
24/06:00pm 15.3 - - - - ESE 13 17 7 9 - - 0.2
24/05:30pm 15.7 14.0 14.6 93 0.6 E 17 24 9 13 - - 0.2
24/05:28pm 15.7 13.5 14.4 92 0.8 E 19 26 10 14 - - 0.2
24/05:11pm 16.6 15.6 13.5 82 1.8 E 11 13 6 7 - - 0.2
24/05:00pm 16.6 15.0 13.9 84 1.6 ESE 15 20 8 11 - - 0.2
24/04:43pm 16.8 16.5 14.4 86 1.4 ESE 9 13 5 7 - - 0.2
24/04:38pm 17.1 16.9 15.6 91 0.9 ESE 11 17 6 9 - - 0.2
24/04:30pm 17.1 16.2 15.8 92 0.8 SE 15 20 8 11 - - 0.2
24/04:21pm 16.6 15.2 15.5 93 0.7 SE 17 20 9 11 - - 0.2
24/04:01pm 16.4 15.2 16.1 98 0.2 SE 17 20 9 11 - - 0.2
24/04:00pm 16.2 14.9 15.7 97 0.3 SE 17 20 9 11 - - 0.2
24/03:46pm 15.9 13.3 13.7 87 1.3 SE 20 28 11 15 - - 0.0
24/03:30pm 17.4 15.8 13.9 80 2.1 SE 15 24 8 13 - - 0.0
24/03:00pm 17.9 16.2 14.6 81 2.0 SE 17 22 9 12 - - 0.0
24/02:59pm 17.9 16.2 14.6 81 2.0 SE 17 24 9 13 - - 0.0
24/02:30pm 17.3 16.2 14.2 82 1.8 E 13 19 7 10 - - 0.0
24/02:04pm 17.2 15.8 14.5 84 1.6 ESE 15 20 8 11 - - 0.0
24/02:00pm 17.1 15.2 14.2 83 1.7 ESE 17 20 9 11 - - 0.0
24/01:30pm 18.4 17.4 13.3 72 3.0 E 11 15 6 8 - - 0.0
24/01:00pm 17.4 15.8 12.9 75 2.6 SE 13 17 7 9 - - 0.0
24/12:30pm 17.5 15.3 12.0 70 3.1 SE 15 20 8 11 - - 0.0
24/12:00pm 17.1 14.9 13.2 78 2.3 S 17 24 9 13 - - 0.0
24/11:30am 17.1 15.5 12.8 76 2.5 SE 13 20 7 11 - - 0.0
24/11:00am 17.1 15.8 14.7 86 1.4 ESE 15 20 8 11 - - 0.0
24/10:30am 15.8 13.6 14.3 91 0.9 SE 19 28 10 15 - - 0.0
24/10:00am 15.6 14.6 14.6 94 0.6 SE 13 19 7 10 - - 0.0
24/09:31am 14.7 13.4 14.7 100 0.0 SE 15 20 8 11 - - 0.0
24/09:30am 14.7 13.4 14.7 100 0.0 SE 15 20 8 11 - - 0.0
24/09:28am 14.8 13.5 14.8 100 0.0 SE 15 20 8 11 - - 0.0
24/09:04am 14.8 13.9 14.8 100 0.0 SE 13 17 7 9 - - 0.0
24/09:00am 14.7 13.7 14.7 100 0.0 SE 13 17 7 9 - - 7.0
24/08:30am 14.5 13.1 14.5 100 0.0 SE 15 19 8 10 - - 7.0
24/08:14am 14.4 - - - - SE 15 20 8 11 - - 7.0
24/08:00am 14.3 - - - - SE 9 15 5 8 - - 7.0
24/07:46am 14.3 - - - - SE 13 20 7 11 - - 7.0
24/07:40am 14.2 - - - - SE 15 20 8 11 - - 7.0
24/07:30am 14.2 - - - - SE 15 20 8 11 - - 7.0
24/07:17am 14.3 - - - - SE 13 19 7 10 - - 7.0
24/07:07am 14.2 - - - - SE 13 19 7 10 - - 7.0
24/07:00am 14.2 - - - - ESE 13 19 7 10 - - 7.0
24/06:57am 14.2 - - - - ESE 13 17 7 9 - - 6.8
24/06:46am 14.2 - - - - SE 13 19 7 10 - - 6.8
24/06:30am 14.2 - - - - SSE 13 17 7 9 - - 6.8
24/06:23am 14.2 - - - - SSE 13 22 7 12 - - 6.8
24/06:01am 14.3 - - - - SSE 17 24 9 13 - - 6.8
24/06:00am 14.3 - - - - SSE 17 24 9 13 - - 6.8
24/05:46am 14.3 - - - - SSE 13 17 7 9 - - 6.8
24/05:30am 14.2 - - - - SE 13 17 7 9 - - 6.8
24/05:03am 13.9 - - - - SSE 15 19 8 10 - - 6.8
24/05:00am 13.9 - - - - SSE 15 20 8 11 - - 6.8
24/04:58am 14.0 - - - - SSE 17 22 9 12 - - 6.8
24/04:39am 14.1 - - - - SE 17 28 9 15 - - 6.8
24/04:33am 14.1 - - - - SSE 20 32 11 17 - - 6.8
24/04:30am 14.1 - - - - SSE 22 32 12 17 - - 6.8
24/04:13am 14.5 - - - - SE 17 26 9 14 - - 6.8
24/04:09am 14.5 - - - - SE 17 24 9 13 - - 6.8
24/04:00am 14.5 - - - - SE 15 20 8 11 - - 6.8
24/03:50am 14.4 - - - - SE 11 15 6 8 - - 6.8
24/03:30am 14.3 - - - - SE 13 19 7 10 - - 6.8
24/03:21am 14.3 - - - - SE 17 26 9 14 - - 6.8
24/03:00am 14.5 - - - - S 9 13 5 7 - - 6.6
24/02:30am 14.5 - - - - SSE 9 13 5 7 - - 6.4
24/02:00am 14.4 - - - - SE 13 20 7 11 - - 6.2
24/01:54am 14.5 - - - - SSE 17 20 9 11 - - 6.2
24/01:50am 14.5 - - - - SSE 17 26 9 14 - - 6.2
24/01:30am 14.6 - - - - S 13 20 7 11 - - 6.2
24/01:00am 14.6 - - - - S 13 17 7 9 - - 6.0
24/12:30am 14.5 - - - - S 13 19 7 10 - - 6.0
24/12:15am 14.4 - - - - S 11 15 6 8 - - 6.0
24/12:00am 14.2 - - - - S 9 11 5 6 - - 6.0
 
Date/Time
EDT
Temp
°C
App
Temp
°C
Dew
Point
°C
Rel
Hum
%
Delta-T
°C
Wind Press
QNH
hPa
Press
MSL
hPa
Rain since
9am
mm
Dir  Spd
km/h
Gust
km/h
Spd
kts
Gust
kts
23/11:40pm 14.1 - - - - SE 13 17 7 9 - - 5.8
23/11:30pm 14.1 - - - - SE 13 20 7 11 - - 5.8
23/11:00pm 14.0 - - - - SE 13 20 7 11 - - 4.8
23/10:30pm 14.4 - - - - SSE 20 41 11 22 - - 4.8
23/10:03pm 14.3 - - - - S 17 24 9 13 - - 4.8
23/10:00pm 14.3 - - - - S 17 24 9 13 - - 4.8
23/09:30pm 14.4 - - - - S 15 20 8 11 - - 4.8
23/09:24pm 14.4 - - - - S 15 24 8 13 - - 4.8
23/09:06pm 14.4 - - - - S 20 28 11 15 - - 4.8
23/09:00pm 14.4 - - - - S 19 28 10 15 - - 4.8
23/08:45pm 14.5 - - - - S 19 24 10 13 - - 4.8
23/08:30pm 14.5 - - - - S 19 28 10 15 - - 4.8
23/08:07pm 14.6 - - - - S 17 20 9 11 - - 4.6
23/08:00pm 14.5 - - - - S 17 22 9 12 - - 4.6
23/07:39pm 14.7 - - - - SSE 17 26 9 14 - - 4.6
23/07:30pm 14.8 - - - - SSE 15 28 8 15 - - 4.6
23/07:00pm 14.9 - - - - S 13 17 7 9 - - 4.4
23/06:40pm 15.0 - - - - SSE 15 20 8 11 - - 4.2
23/06:36pm 15.0 - - - - SSE 17 22 9 12 - - 4.2
23/06:30pm 15.1 - - - - SSE 15 22 8 12 - - 4.2
23/06:00pm 15.4 - - - - S 11 17 6 9 - - 4.2
23/05:30pm 15.4 - - - - S 15 20 8 11 - - 4.2
23/05:00pm 15.5 - - - - S 15 20 8 11 - - 3.8
23/04:51pm 15.8 - - - - SSE 13 19 7 10 - - 3.6
23/04:30pm 15.9 - - - - SE 15 20 8 11 - - 3.0
23/04:16pm 16.0 - - - - SSE 17 22 9 12 - - 3.0
23/04:00pm 16.2 - - - - SSE 15 19 8 10 - - 2.8
23/03:30pm 16.1 - - - - SSE 13 17 7 9 - - 2.0
23/03:00pm 16.0 - - - - S 13 19 7 10 - - 0.8
23/02:32pm 16.1 15.7 16.1 100 0.0 SSE 13 15 7 8 - - 0.2
23/02:30pm 16.1 15.7 16.1 100 0.0 SSE 13 17 7 9 - - 0.0
23/02:00pm 16.1 15.3 16.1 100 0.0 S 15 20 8 11 - - 0.0
23/01:30pm 16.2 16.2 16.2 100 0.0 SSE 11 15 6 8 - - 0.0
23/01:28pm 16.1 15.7 16.1 100 0.0 SSE 13 15 7 8 - - 0.0
23/01:18pm 16.0 15.5 16.0 100 0.0 SSE 13 19 7 10 - - 0.0
23/01:00pm 16.0 15.5 16.0 100 0.0 SSW 13 19 7 10 - - 0.0
23/12:45pm 16.2 15.4 16.2 100 0.0 S 15 24 8 13 - - 0.0
23/12:30pm 15.7 14.4 15.7 100 0.0 S 17 24 9 13 - - 0.0
23/12:29pm 15.8 14.1 15.8 100 0.0 S 19 24 10 13 - - 0.0
23/12:00pm 16.2 14.8 15.6 96 0.4 S 17 22 9 12 - - 0.0
23/11:30am 16.2 14.8 15.6 96 0.4 S 17 24 9 13 - - 0.0
23/11:00am 16.4 13.2 15.4 94 0.6 SSE 26 33 14 18 - - 0.0
23/10:30am 16.1 14.7 15.6 97 0.3 SSE 17 22 9 12 - - 0.0
23/10:00am 15.8 14.0 15.5 98 0.2 S 19 26 10 14 - - 0.0
23/09:30am 15.6 13.7 15.3 98 0.2 S 19 26 10 14 - - 0.0
23/09:00am 15.5 - - - - SSE 20 28 11 15 - - 6.4
23/08:39am 14.7 - - - - S 17 24 9 13 - - 6.4
23/08:30am 14.7 - - - - S 15 20 8 11 - - 6.4
23/08:20am 14.6 - - - - S 15 20 8 11 - - 6.4
23/08:17am 14.7 - - - - SSE 15 20 8 11 - - 6.4
23/08:00am 14.5 - - - - S 15 22 8 12 - - 6.4
23/07:33am 14.7 - - - - S 17 20 9 11 - - 6.4
23/07:30am 14.7 - - - - S 17 24 9 13 - - 6.4
23/07:00am 14.8 - - - - S 19 30 10 16 - - 6.4
23/06:52am 14.7 - - - - S 19 30 10 16 - - 6.4
23/06:37am 14.6 - - - - S 17 24 9 13 - - 6.4
23/06:30am 14.6 - - - - S 17 20 9 11 - - 6.4
23/06:01am 14.7 - - - - S 15 26 8 14 - - 6.4
23/06:00am 14.8 - - - - S 15 26 8 14 - - 6.4
23/05:48am 14.8 - - - - S 19 24 10 13 - - 6.4
23/05:30am 14.9 12.9 14.9 100 0.0 S 19 24 10 13 - - 6.4
23/05:00am 14.9 12.7 14.9 100 0.0 S 20 33 11 18 - - 6.4
23/04:30am 15.1 14.3 15.1 100 0.0 S 13 20 7 11 - - 6.4
23/04:00am 15.1 15.1 15.1 100 0.0 S 9 22 5 12 - - 6.4
23/03:30am 15.1 - - - - S 24 33 13 18 - - 6.4
23/03:00am 15.2 - - - - S 24 32 13 17 - - 6.4
23/02:33am 15.2 - - - - SSE 19 30 10 16 - - 6.4
23/02:30am 15.2 - - - - SSE 19 30 10 16 - - 6.4
23/02:13am 15.2 - - - - SSE 22 30 12 16 - - 6.4
23/02:00am 15.4 - - - - SSE 20 28 11 15 - - 6.4
23/01:39am 15.4 - - - - SSE 26 43 14 23 - - 6.4
23/01:30am 15.5 - - - - S 22 35 12 19 - - 6.4
23/01:00am 15.7 - - - - SSE 17 28 9 15 - - 6.4
23/12:53am 15.7 - - - - S 17 26 9 14 - - 6.4
23/12:40am 15.8 - - - - SSE 19 26 10 14 - - 6.4
23/12:30am 15.8 - - - - SSE 19 28 10 15 - - 6.4
23/12:00am 15.7 - - - - S 17 24 9 13 - - 6.4
 
Date/Time
EDT
Temp
°C
App
Temp
°C
Dew
Point
°C
Rel
Hum
%
Delta-T
°C
Wind Press
QNH
hPa
Press
MSL
hPa
Rain since
9am
mm
Dir  Spd
km/h
Gust
km/h
Spd
kts
Gust
kts
22/11:30pm 15.8 - - - - S 20 30 11 16 - - 6.4
22/11:16pm 15.8 - - - - SSE 20 28 11 15 - - 6.4
22/11:00pm 15.8 - - - - S 20 30 11 16 - - 6.4
22/10:30pm 16.1 - - - - S 28 37 15 20 - - 6.4
22/10:00pm 16.5 - - - - S 20 24 11 13 - - 6.2
22/09:30pm 16.8 - - - - SSE 24 33 13 18 - - 6.2
22/09:00pm 17.3 - - - - SE 20 30 11 16 - - 6.0
22/08:45pm 17.7 - - - - SE 20 32 11 17 - - 6.0
22/08:44pm 17.7 - - - - SE 20 32 11 17 - - 6.0
22/08:30pm 17.9 - - - - SE 22 32 12 17 - - 6.0
22/08:19pm 18.0 - - - - SE 20 24 11 13 - - 6.0
22/08:00pm 18.3 17.4 18.3 100 0.0 SE 20 32 11 17 - - 6.0
22/07:56pm 18.7 18.5 18.5 99 0.1 SE 17 24 9 13 - - 6.0
22/07:30pm 18.9 17.8 16.3 85 1.6 SE 17 24 9 13 - - 6.0
22/07:00pm 19.6 19.5 16.1 80 2.2 S 11 15 6 8 - - 6.0
22/06:30pm 20.2 19.4 16.2 78 2.5 SSE 15 22 8 12 - - 6.0
22/06:00pm 21.0 22.0 16.8 77 2.6 S 7 15 4 8 - - 6.0
22/05:30pm 21.1 21.7 16.7 76 2.8 W 9 13 5 7 - - 6.0
22/05:00pm 20.8 21.6 16.4 76 2.7 ESE 7 11 4 6 - - 6.0
22/04:30pm 21.0 19.7 16.8 77 2.6 S 19 28 10 15 - - 6.0
22/04:06pm 19.3 18.1 19.3 100 0.0 SW 24 37 13 20 - - 6.0
22/04:00pm 18.4 17.2 18.4 100 0.0 SW 22 32 12 17 - - 6.0
22/03:36pm 18.7 14.7 14.0 74 2.8 SW 28 61 15 33 - - 1.4
22/03:35pm 20.0 16.7 13.9 68 3.6 SSW 24 61 13 33 - - 0.6
22/03:32pm 23.4 22.3 15.2 60 5.0 S 15 50 8 27 - - 0.0
22/03:30pm 25.0 26.1 18.0 65 4.5 SSE 9 15 5 8 - - 0.0
22/03:00pm 25.8 26.2 17.2 59 5.5 S 11 19 6 10 - - 0.0
22/02:30pm 25.6 25.9 17.8 62 5.0 S 13 17 7 9 - - 0.0
22/02:00pm 24.8 23.8 17.5 64 4.7 S 19 28 10 15 - - 0.0
22/01:30pm 24.9 24.0 16.9 61 5.1 SW 17 24 9 13 - - 0.0
22/01:00pm 25.1 24.5 18.5 67 4.3 SW 19 24 10 13 - - 0.0

Other Formats:

Comma delimited format used in spreadsheet applications
http://www.bom.gov.au/fwo/IDN60801/IDN60801.94746.axf

JavaScript Object Notation format (JSON) in row-major order
http://www.bom.gov.au/fwo/IDN60801/IDN60801.94746.json